createdAt,value
2017-11-09T00:01:12.818Z,18.20
2017-11-09T00:38:46.412Z,15.43
2017-11-09T00:41:13.859Z,16.90
2017-11-09T00:43:41.296Z,16.80
2017-11-09T00:46:09.505Z,18.30
2017-11-09T00:48:36.952Z,17.00
2017-11-09T00:51:04.407Z,20.67
2017-11-09T00:53:31.848Z,16.50
2017-11-09T00:55:59.297Z,15.30
2017-11-09T00:58:26.746Z,17.37
2017-11-09T01:00:54.964Z,15.33
2017-11-09T01:03:23.185Z,16.00
2017-11-09T01:05:51.398Z,14.37
2017-11-09T01:08:18.840Z,15.87
2017-11-09T01:10:46.288Z,15.77
2017-11-09T01:13:13.740Z,15.93
2017-11-09T01:15:41.953Z,15.07
2017-11-09T01:18:09.391Z,14.73
2017-11-09T01:20:36.849Z,16.43
2017-11-09T01:23:04.295Z,17.70
2017-11-09T01:25:31.745Z,15.63
2017-11-09T01:27:59.193Z,17.60
2017-11-09T01:30:27.429Z,16.83
2017-11-09T01:32:54.875Z,14.73
2017-11-09T01:35:22.315Z,16.37
2017-11-09T01:37:49.764Z,13.33
2017-11-09T01:40:17.224Z,14.30
2017-11-09T01:42:44.671Z,14.27
2017-11-09T01:45:12.113Z,17.57
2017-11-09T01:47:39.569Z,14.53
2017-11-09T01:50:07.020Z,13.60
2017-11-09T01:52:34.473Z,15.00
2017-11-09T01:55:01.921Z,14.73
2017-11-09T01:57:30.136Z,12.57
2017-11-09T01:59:57.579Z,13.23
2017-11-09T02:02:25.051Z,17.13
2017-11-09T02:04:52.477Z,14.10
2017-11-09T02:07:19.929Z,16.73
2017-11-09T02:09:47.370Z,15.30
2017-11-09T02:12:15.590Z,18.27
2017-11-09T02:14:43.040Z,15.57
2017-11-09T02:17:10.490Z,16.00
2017-11-09T02:19:37.949Z,17.30
2017-11-09T02:22:05.404Z,18.60
2017-11-09T02:24:32.852Z,17.73
2017-11-09T02:27:00.296Z,16.20
2017-11-09T02:29:27.736Z,16.30
2017-11-09T02:31:55.945Z,19.20
2017-11-09T02:34:23.401Z,18.67
2017-11-09T02:36:50.861Z,20.73
2017-11-09T02:39:18.322Z,20.20
2017-11-09T02:41:45.768Z,21.83
2017-11-09T02:44:13.238Z,21.80
2017-11-09T02:46:40.678Z,20.40
2017-11-09T02:49:08.136Z,21.43
2017-11-09T02:51:35.592Z,21.23
2017-11-09T02:54:03.047Z,21.10
2017-11-09T02:56:30.492Z,22.87
2017-11-09T02:58:57.958Z,23.40
2017-11-09T03:01:25.413Z,21.63
2017-11-09T03:03:52.872Z,24.27
2017-11-09T03:06:20.321Z,22.40
2017-11-09T03:08:47.772Z,23.00
2017-11-09T03:11:15.217Z,22.40
2017-11-09T03:13:42.663Z,26.30
2017-11-09T03:16:10.892Z,22.37
2017-11-09T03:18:38.340Z,22.40
2017-11-09T03:21:05.843Z,25.43
2017-11-09T03:23:34.056Z,26.33
2017-11-09T03:26:01.513Z,24.63
2017-11-09T03:28:28.967Z,27.20
2017-11-09T03:30:56.425Z,24.53
2017-11-09T03:33:23.881Z,27.43
2017-11-09T03:35:51.337Z,20.07
2017-11-09T03:38:18.776Z,25.43
2017-11-09T03:40:46.233Z,25.07
2017-11-09T03:43:13.677Z,26.00
2017-11-09T03:45:41.892Z,24.57
2017-11-09T03:48:09.335Z,22.73
2017-11-09T03:50:36.830Z,23.23
2017-11-09T03:53:04.275Z,28.33
2017-11-09T03:55:31.722Z,22.60
2017-11-09T03:57:59.167Z,22.40
2017-11-09T04:00:26.616Z,21.80
2017-11-09T04:02:54.069Z,22.27
2017-11-09T04:05:21.513Z,27.47
2017-11-09T04:07:48.964Z,29.83
2017-11-09T04:10:16.425Z,26.03
2017-11-09T04:12:43.864Z,36.83
2017-11-09T04:15:12.081Z,29.70
2017-11-09T04:17:39.525Z,31.50
2017-11-09T04:20:06.980Z,30.37
2017-11-09T04:22:34.423Z,32.10
2017-11-09T04:25:01.868Z,30.60
2017-11-09T04:27:29.313Z,34.50
2017-11-09T04:29:57.524Z,30.57
2017-11-09T04:32:24.977Z,32.67
2017-11-09T04:34:52.453Z,34.13
2017-11-09T04:37:19.900Z,34.20
2017-11-09T04:39:47.343Z,38.30
2017-11-09T04:42:14.796Z,31.73
2017-11-09T04:44:42.252Z,54.17
2017-11-09T04:47:09.693Z,43.20
2017-11-09T04:49:37.136Z,90.70
2017-11-09T04:52:05.385Z,64.80
2017-11-09T04:54:32.837Z,37.07
2017-11-09T04:57:00.281Z,37.07
2017-11-09T04:59:27.724Z,33.77
2017-11-09T05:01:55.167Z,28.57
2017-11-09T05:04:22.627Z,29.03
2017-11-09T05:06:50.081Z,32.37
2017-11-09T05:09:17.516Z,32.77
2017-11-09T05:11:44.965Z,32.20
2017-11-09T05:14:13.218Z,36.83
2017-11-09T05:16:40.707Z,31.43
2017-11-09T05:19:08.148Z,33.47
2017-11-09T05:21:36.400Z,30.93
2017-11-09T05:24:03.851Z,29.57
2017-11-09T05:26:32.801Z,33.00
2017-11-09T05:29:00.257Z,33.60
2017-11-09T05:31:27.700Z,28.97
2017-11-09T05:33:55.153Z,29.00
2017-11-09T05:36:22.597Z,30.83
2017-11-09T05:38:50.813Z,27.00
2017-11-09T05:41:18.258Z,33.17
2017-11-09T05:43:45.723Z,27.40
2017-11-09T05:46:13.170Z,28.90
2017-11-09T05:48:40.635Z,31.07
2017-11-09T05:51:08.085Z,29.40
2017-11-09T05:53:35.536Z,29.80
2017-11-09T05:56:02.992Z,26.70
2017-11-09T05:58:30.455Z,27.63
2017-11-09T06:00:57.901Z,28.00
2017-11-09T06:03:25.361Z,25.43
2017-11-09T06:05:52.812Z,26.30
2017-11-09T06:08:20.264Z,27.83
2017-11-09T06:10:47.704Z,27.67
2017-11-09T06:13:15.146Z,29.93
2017-11-09T06:15:43.355Z,34.90
2017-11-09T06:18:10.796Z,28.67
2017-11-09T06:20:38.248Z,27.47
2017-11-09T06:23:05.696Z,28.80
2017-11-09T06:25:33.913Z,28.10
2017-11-09T06:28:01.353Z,27.27
2017-11-09T06:30:28.809Z,28.83
2017-11-09T06:32:56.265Z,26.47
2017-11-09T06:35:23.721Z,26.83
2017-11-09T06:37:51.170Z,25.07
2017-11-09T06:40:18.933Z,26.83
2017-11-09T06:42:46.409Z,25.50
2017-11-09T06:45:13.868Z,25.83
2017-11-09T06:47:41.311Z,34.30
2017-11-09T06:50:08.764Z,29.90
2017-11-09T06:52:36.213Z,28.27
2017-11-09T06:55:03.674Z,29.00
2017-11-09T06:57:31.115Z,30.97
2017-11-09T06:59:58.577Z,30.67
2017-11-09T07:02:26.028Z,29.97
2017-11-09T07:04:53.472Z,35.33
2017-11-09T07:07:21.683Z,29.20
2017-11-09T07:09:49.135Z,28.33
2017-11-09T07:12:16.588Z,29.80
2017-11-09T07:14:44.042Z,25.80
2017-11-09T07:17:11.497Z,30.10
2017-11-09T07:19:38.956Z,30.67
2017-11-09T07:22:06.404Z,29.10
2017-11-09T07:24:33.875Z,26.77
2017-11-09T07:27:01.308Z,27.57
2017-11-09T07:29:28.774Z,28.83
2017-11-09T07:31:56.219Z,29.73
2017-11-09T07:34:23.672Z,26.60
2017-11-09T07:36:51.108Z,28.60
2017-11-09T07:39:19.344Z,30.80
2017-11-09T07:41:46.788Z,30.17
2017-11-09T07:44:14.232Z,32.37
2017-11-09T07:46:41.690Z,38.03
2017-11-09T07:49:09.137Z,30.60
2017-11-09T07:51:36.608Z,25.13
2017-11-09T07:54:04.049Z,30.40
2017-11-09T07:56:31.505Z,28.83
2017-11-09T07:58:58.962Z,32.63
2017-11-09T08:01:26.423Z,30.37
2017-11-09T08:03:53.874Z,29.70
2017-11-09T08:06:21.336Z,29.53
2017-11-09T08:08:48.792Z,27.73
2017-11-09T08:11:16.247Z,29.20
2017-11-09T08:13:43.704Z,31.37
2017-11-09T08:16:11.159Z,33.30
2017-11-09T08:18:38.625Z,31.43
2017-11-09T08:21:06.079Z,29.27
2017-11-09T08:23:33.529Z,27.33
2017-11-09T08:26:01.297Z,26.70
2017-11-09T08:28:29.916Z,28.83
2017-11-09T08:30:58.500Z,24.27
2017-11-09T08:36:29.584Z,25.40
2017-11-09T08:38:57.032Z,23.87
2017-11-09T08:41:24.477Z,22.67
2017-11-09T08:43:52.263Z,22.40
2017-11-09T08:46:20.511Z,25.23
2017-11-09T08:48:47.956Z,25.47
2017-11-09T08:51:15.396Z,25.37
2017-11-09T08:53:43.608Z,23.00
2017-11-09T08:56:11.056Z,23.43
2017-11-09T08:58:38.509Z,23.13
2017-11-09T09:01:05.964Z,23.20
2017-11-09T09:03:33.392Z,23.57
2017-11-09T09:06:01.631Z,25.57
2017-11-09T09:08:29.073Z,31.93
2017-11-09T09:10:57.287Z,23.13
2017-11-09T09:13:25.504Z,24.87
2017-11-09T09:15:52.942Z,28.67
2017-11-09T09:18:20.410Z,29.43
2017-11-09T09:20:48.311Z,29.00
2017-11-09T09:23:15.763Z,23.27
2017-11-09T09:25:44.019Z,25.73
2017-11-09T09:28:21.409Z,27.90
2017-11-09T09:30:48.857Z,29.03
2017-11-09T09:33:20.260Z,32.67
2017-11-09T09:35:51.368Z,29.87
2017-11-09T09:38:21.716Z,29.37
2017-11-09T09:40:49.148Z,27.03
2017-11-09T09:43:16.604Z,28.07
2017-11-09T09:45:44.114Z,24.20
2017-11-09T09:48:12.419Z,30.50
2017-11-09T09:50:39.851Z,29.57
2017-11-09T09:53:07.447Z,24.30
2017-11-09T09:55:35.036Z,27.13
2017-11-09T09:58:02.479Z,28.87
2017-11-09T10:00:29.930Z,26.80
2017-11-09T10:02:57.401Z,30.37
2017-11-09T10:05:24.845Z,22.17
2017-11-09T10:07:52.285Z,23.97
2017-11-09T10:10:19.883Z,23.07
2017-11-09T10:12:47.319Z,23.57
2017-11-09T10:15:14.764Z,24.10
2017-11-09T10:17:42.216Z,26.03
2017-11-09T10:20:09.673Z,21.87
2017-11-09T10:22:37.491Z,21.00
2017-11-09T10:25:05.700Z,22.83
2017-11-09T10:27:33.145Z,23.80
2017-11-09T10:30:00.599Z,23.80
2017-11-09T10:32:30.824Z,23.53
2017-11-09T10:34:58.284Z,20.30
2017-11-09T10:37:25.740Z,22.93
2017-11-09T10:39:53.182Z,25.27
2017-11-09T10:42:20.619Z,22.33
2017-11-09T10:44:48.831Z,24.93
2017-11-09T10:47:16.278Z,21.30
2017-11-09T10:49:43.731Z,22.30
2017-11-09T10:52:11.168Z,21.40
2017-11-09T10:54:38.619Z,22.33
2017-11-09T10:57:06.832Z,27.10
2017-11-09T10:59:34.285Z,31.73
2017-11-09T11:02:01.733Z,22.23
2017-11-09T11:04:29.200Z,21.20
2017-11-09T11:06:56.639Z,21.67
2017-11-09T11:09:24.090Z,25.10
2017-11-09T11:11:51.642Z,25.13
2017-11-09T11:14:19.089Z,21.90
2017-11-09T11:16:47.293Z,25.83
2017-11-09T11:19:14.742Z,22.00
2017-11-09T11:21:42.187Z,19.23
2017-11-09T11:24:09.629Z,19.50
2017-11-09T11:26:37.842Z,21.30
2017-11-09T11:29:05.280Z,19.10
2017-11-09T11:31:32.741Z,18.60
2017-11-09T11:34:00.182Z,23.23
2017-11-09T11:36:27.621Z,19.83
2017-11-09T11:38:55.832Z,21.93
2017-11-09T11:41:23.287Z,20.50
2017-11-09T11:43:50.740Z,24.43
2017-11-09T11:46:24.744Z,21.27
2017-11-09T11:48:52.199Z,17.87
2017-11-09T11:51:19.657Z,25.43
2017-11-09T11:53:47.113Z,19.10
2017-11-09T11:56:14.568Z,19.97
2017-11-09T11:58:42.023Z,22.23
2017-11-09T12:01:09.480Z,20.20
2017-11-09T12:03:36.929Z,22.90
2017-11-09T12:06:04.383Z,21.83
2017-11-09T12:08:31.819Z,21.80
2017-11-09T12:11:00.037Z,22.00
2017-11-09T12:13:27.495Z,26.57
2017-11-09T12:15:54.947Z,22.03
2017-11-09T12:18:22.400Z,26.10
2017-11-09T12:20:49.848Z,24.87
2017-11-09T12:23:17.304Z,20.43
2017-11-09T12:25:44.743Z,24.17
2017-11-09T12:28:12.201Z,26.87
2017-11-09T12:30:39.648Z,20.20
2017-11-09T12:33:07.092Z,22.10
2017-11-09T12:35:35.301Z,20.50
2017-11-09T12:38:02.759Z,19.40
2017-11-09T12:40:30.212Z,21.80
2017-11-09T12:42:57.667Z,17.20
2017-11-09T12:45:25.112Z,18.83
2017-11-09T12:47:52.560Z,18.80
2017-11-09T12:50:20.016Z,19.27
2017-11-09T12:52:47.472Z,15.57
2017-11-09T12:55:14.917Z,17.40
2017-11-09T12:57:43.145Z,16.77
2017-11-09T13:00:10.592Z,16.50
2017-11-09T13:02:38.064Z,18.10
2017-11-09T13:05:05.503Z,18.37
2017-11-09T13:07:32.949Z,17.37
2017-11-09T13:10:00.396Z,18.37
2017-11-09T13:12:27.827Z,17.93
2017-11-09T13:14:56.048Z,18.50
2017-11-09T13:17:23.497Z,17.97
2017-11-09T13:19:50.947Z,15.87
2017-11-09T13:22:18.400Z,17.73
2017-11-09T13:24:45.854Z,16.73
2017-11-09T13:27:13.300Z,22.80
2017-11-09T13:29:40.743Z,21.37
2017-11-09T13:32:08.180Z,21.63
2017-11-09T13:34:38.291Z,17.10
2017-11-09T13:37:05.734Z,16.27
2017-11-09T13:39:33.177Z,18.93
2017-11-09T13:42:00.623Z,22.07
2017-11-09T13:44:28.076Z,14.77
2017-11-09T13:46:56.285Z,15.90
2017-11-09T13:49:23.738Z,18.70
2017-11-09T13:51:51.170Z,18.37
2017-11-09T13:54:18.629Z,14.87
2017-11-09T13:56:46.059Z,15.80
2017-11-09T13:59:13.524Z,16.80
2017-11-09T14:01:40.960Z,16.80
2017-11-09T14:04:08.399Z,15.10
2017-11-09T14:06:36.622Z,17.70
2017-11-09T14:09:04.051Z,22.93
2017-11-09T14:11:31.492Z,16.27
2017-11-09T14:13:58.935Z,17.10
2017-11-09T14:16:27.160Z,17.50
2017-11-09T14:18:54.731Z,15.83
2017-11-09T14:21:23.081Z,15.50
2017-11-09T14:23:50.518Z,16.20
2017-11-09T14:26:17.969Z,16.47
2017-11-09T14:28:45.417Z,13.73
2017-11-09T14:31:13.636Z,15.57
2017-11-09T14:33:41.079Z,16.87
2017-11-09T14:36:08.532Z,23.20
2017-11-09T14:38:36.761Z,15.93
2017-11-09T14:41:04.224Z,19.63
2017-11-09T14:43:32.435Z,22.60
2017-11-09T14:45:59.881Z,18.07
2017-11-09T14:48:27.325Z,17.37
2017-11-09T14:50:54.767Z,18.97
2017-11-09T14:53:22.991Z,19.10
2017-11-09T14:55:50.455Z,19.60
2017-11-09T14:58:17.966Z,17.50
2017-11-09T15:00:45.416Z,19.97
2017-11-09T15:03:13.637Z,17.60
2017-11-09T15:05:41.080Z,18.97
2017-11-09T15:08:08.545Z,22.80
2017-11-09T15:10:35.995Z,18.50
2017-11-09T15:13:03.452Z,20.40
2017-11-09T15:15:30.907Z,19.93
2017-11-09T15:17:58.364Z,18.70
2017-11-09T15:20:25.820Z,18.00
2017-11-09T15:22:53.288Z,17.93
2017-11-09T15:25:20.753Z,18.90
2017-11-09T15:27:48.199Z,19.30
2017-11-09T15:30:15.650Z,19.70
2017-11-09T15:32:43.107Z,20.20
2017-11-09T15:35:10.551Z,17.33
2017-11-09T15:37:38.006Z,16.53
2017-11-09T15:40:05.469Z,18.83
2017-11-09T15:42:32.930Z,18.60
2017-11-09T15:45:00.391Z,22.97
2017-11-09T15:47:27.841Z,21.37
2017-11-09T15:49:55.292Z,16.10
2017-11-09T15:52:22.776Z,18.93
2017-11-09T15:54:50.252Z,16.13
2017-11-09T15:57:17.701Z,14.00
2017-11-09T15:59:45.146Z,16.97
2017-11-09T16:02:12.598Z,15.03
2017-11-09T16:04:40.819Z,12.77
2017-11-09T16:07:14.688Z,15.37
2017-11-09T16:09:42.145Z,16.23
2017-11-09T16:12:09.605Z,15.10
2017-11-09T16:14:37.056Z,17.73
2017-11-09T16:17:04.516Z,32.77
2017-11-09T16:19:31.976Z,42.07
2017-11-09T16:21:59.432Z,29.70
2017-11-09T16:24:26.888Z,24.23
2017-11-09T16:26:57.273Z,27.47
2017-11-09T16:29:24.729Z,24.23
2017-11-09T16:31:52.183Z,22.60
2017-11-09T16:34:19.647Z,23.53
2017-11-09T16:36:47.100Z,24.87
2017-11-09T16:39:14.555Z,23.20
2017-11-09T16:41:42.016Z,22.90
2017-11-09T16:44:09.473Z,23.27
2017-11-09T16:46:36.960Z,21.27
2017-11-09T16:49:04.411Z,26.10
2017-11-09T16:51:31.887Z,23.97
2017-11-09T16:54:01.153Z,30.17
2017-11-09T16:56:28.630Z,23.50
2017-11-09T16:58:56.071Z,27.57
2017-11-09T17:01:23.519Z,25.80
2017-11-09T17:03:50.970Z,32.47
2017-11-09T17:06:18.419Z,39.03
2017-11-09T17:08:46.629Z,31.03
2017-11-09T17:11:14.077Z,28.23
2017-11-09T17:13:41.531Z,23.40
2017-11-09T17:16:09.001Z,25.73
2017-11-09T17:18:36.444Z,21.60
2017-11-09T17:21:03.969Z,23.00
2017-11-09T17:23:31.420Z,20.37
2017-11-09T17:25:58.882Z,21.10
2017-11-09T17:28:26.320Z,24.30
2017-11-09T17:30:53.907Z,20.23
2017-11-09T17:33:21.482Z,23.10
2017-11-09T17:35:48.928Z,22.03
2017-11-09T17:38:16.380Z,21.87
2017-11-09T17:40:43.832Z,18.77
2017-11-09T17:43:11.286Z,22.50
2017-11-09T17:45:38.732Z,21.77
2017-11-09T17:48:06.188Z,21.70
2017-11-09T17:50:33.651Z,20.03
2017-11-09T17:53:01.332Z,18.93
2017-11-09T17:55:29.580Z,20.60
2017-11-09T17:57:57.034Z,21.17
2017-11-09T18:00:24.502Z,21.33
2017-11-09T18:02:51.955Z,18.03
2017-11-09T18:05:19.408Z,19.03
2017-11-09T18:07:46.867Z,18.10
2017-11-09T18:10:14.320Z,18.20
2017-11-09T18:12:41.775Z,18.50
2017-11-09T18:15:09.217Z,17.43
2017-11-09T18:17:36.668Z,21.87
2017-11-09T18:20:04.109Z,19.20
2017-11-09T18:22:37.244Z,21.90
2017-11-09T18:25:04.703Z,20.43
2017-11-09T18:27:32.160Z,19.70
2017-11-09T18:29:59.603Z,21.90
2017-11-09T18:32:27.079Z,22.60
2017-11-09T18:34:54.511Z,26.70
2017-11-09T18:37:21.968Z,26.97
2017-11-09T18:39:49.408Z,25.27
2017-11-09T18:42:16.862Z,21.20
2017-11-09T18:44:44.299Z,18.30
2017-11-09T18:47:12.534Z,20.77
2017-11-09T18:49:40.009Z,22.53
2017-11-09T18:52:07.444Z,20.77
2017-11-09T18:54:34.898Z,23.33
2017-11-09T18:57:02.374Z,23.20
2017-11-09T18:59:29.828Z,22.70
2017-11-09T19:01:57.295Z,23.00
2017-11-09T19:04:24.752Z,17.63
2017-11-09T19:06:52.203Z,17.90
2017-11-09T19:09:19.662Z,18.03
2017-11-09T19:11:47.115Z,20.83
2017-11-09T19:14:14.569Z,18.40
2017-11-09T19:16:42.016Z,17.90
2017-11-09T19:19:09.493Z,19.90
2017-11-09T19:21:36.941Z,20.53
2017-11-09T19:24:04.391Z,20.33
2017-11-09T19:26:31.840Z,26.27
2017-11-09T19:28:59.306Z,18.90
2017-11-09T19:31:26.743Z,22.70
2017-11-09T19:33:54.200Z,20.60
2017-11-09T19:36:21.644Z,21.83
2017-11-09T19:38:49.100Z,19.83
2017-11-09T19:41:16.544Z,22.33
2017-11-09T19:43:43.998Z,21.87
2017-11-09T19:46:11.470Z,15.43
2017-11-09T19:48:38.911Z,22.27
2017-11-09T19:51:06.367Z,17.53
2017-11-09T19:53:33.823Z,20.70
2017-11-09T19:56:01.285Z,17.70
2017-11-09T19:58:28.755Z,19.20
2017-11-09T20:00:56.203Z,16.93
2017-11-09T20:03:23.648Z,19.00
2017-11-09T20:05:51.102Z,19.10
2017-11-09T20:08:18.566Z,18.30
2017-11-09T20:10:46.013Z,19.70
2017-11-09T20:13:13.480Z,22.80
2017-11-09T20:15:40.958Z,23.50
2017-11-09T20:18:08.405Z,20.40
2017-11-09T20:20:35.876Z,18.30
2017-11-09T20:23:03.348Z,17.73
2017-11-09T20:25:30.795Z,17.03
2017-11-09T20:27:58.240Z,18.93
2017-11-09T20:30:25.696Z,20.70
2017-11-09T20:32:53.196Z,23.37
2017-11-09T20:35:21.408Z,22.40
2017-11-09T20:37:48.871Z,21.23
2017-11-09T20:40:16.672Z,20.27
2017-11-09T20:42:50.900Z,21.70
2017-11-09T20:45:19.128Z,22.70
2017-11-09T20:47:46.591Z,20.63
2017-11-09T20:50:15.839Z,18.10
2017-11-09T20:52:43.289Z,17.87
2017-11-09T20:55:11.529Z,21.03
2017-11-09T20:57:38.976Z,20.70
2017-11-09T21:00:06.429Z,21.20
2017-11-09T21:02:33.872Z,18.80
2017-11-09T21:05:01.321Z,18.00
2017-11-09T21:07:28.780Z,17.10
2017-11-09T21:09:56.270Z,19.73
2017-11-09T21:12:23.719Z,17.77
2017-11-09T21:14:51.175Z,17.20
2017-11-09T21:17:18.628Z,20.20
2017-11-09T21:19:46.124Z,18.63
2017-11-09T21:22:13.679Z,16.87
2017-11-09T21:24:42.823Z,13.87
2017-11-09T21:27:10.411Z,16.80
2017-11-09T21:29:37.860Z,16.43
2017-11-09T21:32:05.846Z,16.40
2017-11-09T21:34:34.074Z,18.93
2017-11-09T21:37:01.727Z,23.37
2017-11-09T21:39:29.193Z,21.50
2017-11-09T21:41:57.424Z,19.30
2017-11-09T21:44:25.637Z,18.70
2017-11-09T21:46:53.966Z,21.47
2017-11-09T21:49:21.567Z,20.47
2017-11-09T21:51:49.027Z,17.73
2017-11-09T21:54:16.499Z,17.23
2017-11-09T21:56:43.988Z,21.63
2017-11-09T21:59:15.197Z,22.83
2017-11-09T22:01:42.693Z,18.73
2017-11-09T22:04:10.948Z,19.80
2017-11-09T22:06:38.415Z,14.73
2017-11-09T22:09:05.891Z,15.93
2017-11-09T22:11:34.145Z,20.70
2017-11-09T22:14:01.602Z,18.60
2017-11-09T22:16:29.028Z,16.17
2017-11-09T22:18:56.470Z,16.23
2017-11-09T22:21:23.919Z,16.27
2017-11-09T22:23:51.376Z,16.20
2017-11-09T22:26:18.829Z,14.67
2017-11-09T22:28:46.287Z,16.37
2017-11-09T22:31:13.749Z,16.73
2017-11-09T22:33:41.200Z,14.80
2017-11-09T22:36:08.655Z,14.00
2017-11-09T22:38:36.092Z,14.83
2017-11-09T22:41:03.655Z,15.57
2017-11-09T22:43:31.120Z,17.83
2017-11-09T22:45:59.619Z,16.40
2017-11-09T22:48:27.164Z,16.20
2017-11-09T22:50:54.690Z,16.60
2017-11-09T22:53:22.198Z,13.97
2017-11-09T22:55:49.648Z,15.93
2017-11-09T22:58:17.095Z,17.90
2017-11-09T23:00:44.549Z,16.87
2017-11-09T23:03:12.002Z,18.60
2017-11-09T23:05:39.442Z,15.77
2017-11-09T23:08:06.880Z,16.27
2017-11-09T23:10:35.101Z,16.90
2017-11-09T23:13:03.312Z,14.10
2017-11-09T23:15:30.762Z,21.30
2017-11-09T23:17:58.200Z,16.83
2017-11-09T23:20:25.652Z,18.60
2017-11-09T23:22:53.105Z,15.00
2017-11-09T23:25:20.554Z,17.23
2017-11-09T23:27:48.000Z,17.57
2017-11-09T23:30:16.229Z,15.60
2017-11-09T23:32:43.668Z,16.30
2017-11-09T23:35:11.104Z,20.20
2017-11-09T23:37:38.557Z,22.13
2017-11-09T23:40:05.997Z,20.97
2017-11-09T23:42:33.460Z,22.23
2017-11-09T23:45:00.909Z,23.13
2017-11-09T23:47:28.368Z,24.70
2017-11-09T23:49:55.822Z,25.37
2017-11-09T23:52:23.277Z,27.83
2017-11-09T23:54:50.719Z,25.30
2017-11-09T23:57:18.163Z,28.13
2017-11-09T23:59:46.375Z,33.13
